Time;durP1;ratioP1;P1;durP2;ratioP2;P2;SDS_P1;SDS_P2;PMS_P1;PMS_P2;Temp;Humidity;BMP_temperature;BMP_pressure;BME280_temperature;BME280_humidity;BME280_pressure;Samples;Min_cycle;Max_cycle;Signal;HPM_P1;HPM_P2
2024/01/16 00:01:08;;;;;;;6.27;3.03;;;0.10;65.20;;;1.80;51.55;97000.09;5072892;28;20036;-54
2024/01/16 00:03:38;;;;;;;5.83;3.00;;;0.20;65.00;;;1.88;51.45;97000.31;5072793;28;20419;-53
2024/01/16 00:06:07;;;;;;;4.33;3.20;;;0.20;64.50;;;1.89;51.83;97005.44;5073198;28;20061;-55
2024/01/16 00:08:35;;;;;;;7.10;3.60;;;0.20;64.80;;;1.80;51.54;97000.09;5072922;28;20036;-53
2024/01/16 00:11:03;;;;;;;7.77;3.70;;;0.10;64.50;;;1.83;51.31;97000.69;5072753;28;20037;-53
2024/01/16 00:13:33;;;;;;;6.23;3.37;;;0.10;65.00;;;1.90;51.80;97007.13;5070821;28;20049;-53
2024/01/16 00:16:03;;;;;;;5.57;3.33;;;0.20;64.80;;;1.80;51.92;97008.81;5065340;28;20044;-54
2024/01/16 00:18:31;;;;;;;5.90;3.03;;;0.10;65.00;;;1.80;51.79;97006.19;5071942;28;20052;-55
2024/01/16 00:21:02;;;;;;;5.73;3.20;;;0.10;65.40;;;1.80;52.00;97006.19;5072548;28;20396;-54
2024/01/16 00:23:32;;;;;;;6.20;3.03;;;0.10;65.60;;;1.83;51.96;96998.06;5072657;28;20056;-51
2024/01/16 00:26:00;;;;;;;6.37;3.37;;;0.10;65.50;;;1.86;51.47;96997.84;5072494;28;20505;-55
2024/01/16 00:28:28;;;;;;;6.60;3.47;;;0.10;65.30;;;1.87;51.60;97006.53;5072703;28;20045;-55
2024/01/16 00:30:55;;;;;;;8.97;3.33;;;0.10;65.20;;;1.76;51.39;97002.13;5072407;28;20066;-54
2024/01/16 00:33:23;;;;;;;5.83;3.63;;;0.10;65.30;;;1.81;51.38;97005.25;5071810;28;20044;-52
2024/01/16 00:35:51;;;;;;;11.43;3.43;;;0.10;65.20;;;1.85;51.70;97004.03;5071977;28;20043;-53
2024/01/16 00:38:19;;;;;;;8.30;4.07;;;0.20;65.20;;;1.89;51.88;96997.56;5072426;28;20045;-54
2024/01/16 00:40:46;;;;;;;7.70;2.93;;;0.20;64.90;;;1.89;51.72;96999.38;5072458;28;20415;-51
2024/01/16 00:43:14;;;;;;;5.60;3.67;;;0.20;65.00;;;1.92;51.78;97005.22;5087715;28;20044;-54
2024/01/16 00:45:41;;;;;;;4.33;3.07;;;0.20;64.80;;;1.88;51.29;97003.81;5072152;28;20048;-51
2024/01/16 00:48:13;;;;;;;6.40;3.33;;;0.20;64.90;;;1.88;51.58;97005.56;5071947;28;20033;-52
2024/01/16 00:50:41;;;;;;;4.30;3.20;;;0.20;64.60;;;1.81;51.34;97004.41;5071870;28;20045;-51
2024/01/16 00:53:09;;;;;;;5.47;2.63;;;0.10;65.10;;;1.84;51.56;97002.38;5071679;28;20492;-54
2024/01/16 00:55:37;;;;;;;4.10;3.00;;;0.10;65.10;;;1.84;51.41;97002.38;5070830;28;20063;-50
2024/01/16 00:58:04;;;;;;;5.00;2.90;;;0.20;65.00;;;1.77;51.65;97004.63;5064267;28;20036;-56
2024/01/16 01:00:33;;;;;;;5.83;3.30;;;0.10;65.40;;;1.83;51.59;97007.75;5070353;28;20064;-54
2024/01/16 01:03:03;;;;;;;5.00;2.77;;;0.10;65.40;;;1.86;51.96;97007.47;5070211;28;20041;-54
2024/01/16 01:05:31;;;;;;;6.40;3.47;;;0.10;65.20;;;1.89;51.64;97007.25;5071563;28;20056;-54
2024/01/16 01:07:59;;;;;;;6.73;3.40;;;0.20;65.00;;;1.88;51.36;97013.44;5071995;28;20040;-56
2024/01/16 01:10:26;;;;;;;4.90;3.93;;;0.20;65.20;;;1.90;51.43;97011.53;5070405;28;20048;-56
2024/01/16 01:12:54;;;;;;;5.07;3.30;;;0.20;65.00;;;1.87;51.56;97004.75;5071403;28;20049;-54
2024/01/16 01:15:22;;;;;;;7.87;3.50;;;0.20;65.00;;;1.92;51.75;97007.00;5071657;28;20052;-54
2024/01/16 01:17:50;;;;;;;6.13;3.30;;;0.20;65.00;;;1.86;51.63;97010.09;5071879;28;20062;-51
2024/01/16 01:20:19;;;;;;;6.53;3.40;;;0.20;65.00;;;1.86;51.55;97024.09;5071777;28;20053;-52
2024/01/16 01:22:47;;;;;;;4.60;2.90;;;0.10;65.20;;;1.88;51.57;97011.69;5071342;28;20044;-53
2024/01/16 01:25:14;;;;;;;6.23;3.40;;;0.10;65.80;;;1.87;51.39;97012.63;5071573;28;20047;-51
2024/01/16 01:27:42;;;;;;;5.47;3.50;;;0.10;65.40;;;1.88;51.43;97014.31;5068445;28;20044;-53
2024/01/16 01:30:10;;;;;;;5.37;3.20;;;0.10;65.60;;;1.92;51.62;97018.34;5069165;28;20036;-52
2024/01/16 01:32:38;;;;;;;7.00;3.10;;;0.20;65.80;;;1.96;51.83;97025.00;5071122;28;20056;-54
2024/01/16 01:35:07;;;;;;;6.77;4.40;;;0.20;65.70;;;1.95;51.48;97025.97;5071456;28;20040;-51
2024/01/16 01:37:35;;;;;;;13.23;3.87;;;0.20;65.60;;;1.96;51.59;97027.63;5071470;28;20056;-51
2024/01/16 01:40:03;;;;;;;5.90;3.50;;;0.20;65.70;;;1.96;51.60;97021.56;5071226;28;20530;-54
2024/01/16 01:42:30;;;;;;;4.50;2.43;;;0.10;65.60;;;1.94;51.71;97034.81;5070665;28;20048;-53
2024/01/16 01:44:58;;;;;;;5.60;3.43;;;0.10;64.70;;;1.93;51.23;97027.06;5070048;28;20052;-51
2024/01/16 01:47:26;;;;;;;5.27;3.37;;;0.10;65.90;;;1.95;51.79;97030.38;5071180;28;20482;-55
2024/01/16 01:49:54;;;;;;;5.00;3.00;;;0.20;65.70;;;1.99;51.89;97038.84;5071347;28;20048;-54
2024/01/16 01:52:22;;;;;;;5.33;3.17;;;0.20;65.60;;;2.01;51.22;97043.00;5069030;28;20045;-53
2024/01/16 01:54:52;;;;;;;5.93;3.23;;;0.20;65.50;;;2.03;51.41;97048.16;5069505;28;20044;-54
2024/01/16 01:57:19;;;;;;;8.63;3.27;;;0.30;65.30;;;1.99;51.57;97031.81;5069977;28;20048;-51
2024/01/16 01:59:47;;;;;;;5.77;3.37;;;0.20;65.30;;;1.96;51.64;97040.78;5069640;28;20045;-54
2024/01/16 02:02:18;;;;;;;4.47;3.13;;;0.20;65.40;;;1.95;51.28;97041.72;5069139;28;20067;-53
2024/01/16 02:04:46;;;;;;;7.17;3.00;;;0.10;65.40;;;1.95;51.72;97043.50;5060996;28;20051;-53
2024/01/16 02:07:16;;;;;;;4.57;3.60;;;0.20;65.50;;;1.97;51.21;97038.97;5070723;28;20044;-54
2024/01/16 02:09:44;;;;;;;7.43;3.67;;;0.20;65.00;;;1.96;51.10;97035.53;5071000;28;20048;-55
2024/01/16 02:12:12;;;;;;;7.17;3.30;;;0.20;65.30;;;1.94;51.24;97033.97;5061440;28;20086;-52
2024/01/16 02:14:39;;;;;;;4.23;2.57;;;0.20;65.40;;;1.88;51.58;97034.44;5069743;28;20044;-54
2024/01/16 02:17:07;;;;;;;5.90;4.00;;;0.10;65.50;;;1.91;51.67;97036.84;5070886;28;20322;-55
2024/01/16 02:19:35;;;;;;;4.73;3.13;;;0.10;65.90;;;1.93;51.04;97042.81;5070820;28;20049;-54
2024/01/16 02:22:07;;;;;;;5.80;3.33;;;0.10;65.50;;;1.90;51.38;97043.88;5070378;28;20044;-51
2024/01/16 02:24:35;;;;;;;6.23;3.03;;;0.10;65.80;;;1.90;51.92;97049.13;5070799;28;20051;-53
2024/01/16 02:27:03;;;;;;;5.47;3.00;;;0.10;65.80;;;1.92;51.03;97039.34;5069542;28;20048;-52
2024/01/16 02:29:30;;;;;;;8.53;3.07;;;0.10;65.60;;;1.90;51.24;97041.25;5071162;28;20400;-53
2024/01/16 02:31:58;;;;;;;4.97;2.70;;;0.00;65.60;;;1.86;51.51;97045.09;5067730;28;20222;-53
2024/01/16 02:34:26;;;;;;;6.20;2.90;;;0.00;65.60;;;1.83;51.21;97037.44;5070611;28;20040;-54
2024/01/16 02:36:53;;;;;;;6.40;3.20;;;-0.10;65.80;;;1.83;51.26;97037.44;5068388;28;20419;-55
2024/01/16 02:39:21;;;;;;;4.67;3.50;;;-0.10;65.70;;;1.84;51.04;97040.91;5070844;28;20050;-53
2024/01/16 02:41:48;;;;;;;6.90;3.00;;;-0.10;65.10;;;1.81;51.13;97035.91;5070161;28;20056;-57
2024/01/16 02:44:16;;;;;;;5.40;4.17;;;-0.10;65.60;;;1.79;51.62;97040.44;5069170;28;20048;-51
2024/01/16 02:46:43;;;;;;;7.93;3.40;;;-0.10;65.60;;;1.80;51.45;97042.09;5070846;28;20049;-51
2024/01/16 02:49:11;;;;;;;5.33;3.57;;;-0.10;65.40;;;1.80;51.05;97044.72;5070713;28;20047;-52
2024/01/16 02:51:39;;;;;;;5.83;3.13;;;-0.10;65.60;;;1.82;51.26;97045.44;5068646;28;20322;-51
2024/01/16 02:54:09;;;;;;;4.57;2.77;;;-0.10;65.40;;;1.79;51.57;97046.53;5068607;28;20503;-53
2024/01/16 02:56:36;;;;;;;7.80;3.63;;;-0.10;65.60;;;1.79;50.98;97050.94;5070631;28;20044;-54
2024/01/16 02:59:04;;;;;;;5.33;3.27;;;-0.20;65.50;;;1.78;50.98;97055.34;5070417;28;20059;-52
2024/01/16 03:01:31;;;;;;;4.57;3.27;;;-0.20;65.40;;;1.75;50.92;97052.97;5069017;28;20045;-52
2024/01/16 03:03:59;;;;;;;5.50;3.37;;;-0.30;66.20;;;1.75;51.27;97053.81;5070289;28;20057;-54
2024/01/16 03:06:28;;;;;;;6.23;3.00;;;-0.30;66.30;;;1.73;51.29;97052.25;5070444;28;20049;-55
2024/01/16 03:08:56;;;;;;;6.20;3.63;;;-0.30;66.30;;;1.64;51.07;97056.41;5069147;28;20040;-55
2024/01/16 03:11:24;;;;;;;5.80;3.07;;;-0.40;66.30;;;1.64;50.87;97053.81;5068274;28;20053;-54
2024/01/16 03:13:53;;;;;;;6.93;3.50;;;-0.40;66.20;;;1.62;51.34;97054.88;5069909;28;20423;-54
2024/01/16 03:16:20;;;;;;;6.30;3.43;;;-0.40;66.20;;;1.58;51.07;97055.09;5073732;28;20051;-55
2024/01/16 03:18:48;;;;;;;5.33;2.97;;;-0.50;66.10;;;1.50;50.87;97056.69;5074156;28;20052;-55
2024/01/16 03:21:16;;;;;;;8.20;3.13;;;-0.50;66.10;;;1.47;50.99;97055.09;5073675;28;20059;-55
2024/01/16 03:23:44;;;;;;;4.87;3.47;;;-0.50;66.00;;;1.43;51.10;97058.91;5071929;28;20048;-54
2024/01/16 03:26:13;;;;;;;5.13;3.30;;;-0.60;66.50;;;1.41;51.21;97052.97;5073670;28;20049;-55
2024/01/16 03:28:42;;;;;;;7.90;3.17;;;-0.60;66.50;;;1.37;51.34;97054.16;5073914;28;20043;-52
2024/01/16 03:31:09;;;;;;;5.67;3.70;;;-0.70;66.70;;;1.39;51.11;97057.50;5073104;28;20048;-52
2024/01/16 03:33:41;;;;;;;8.40;3.43;;;-0.60;66.40;;;1.39;51.40;97062.75;5072851;28;20048;-55
2024/01/16 03:36:10;;;;;;;9.70;3.40;;;-0.70;66.60;;;1.34;51.44;97064.91;5073607;28;20048;-51
2024/01/16 03:38:38;;;;;;;6.17;3.23;;;-0.70;66.50;;;1.32;51.09;97064.19;5071978;28;20397;-51
2024/01/16 03:41:07;;;;;;;5.40;3.13;;;-0.70;66.60;;;1.30;51.45;97064.28;5073404;28;20052;-53
2024/01/16 03:43:35;;;;;;;5.67;3.50;;;-0.70;66.50;;;1.26;51.61;97075.97;5071764;28;20450;-54
2024/01/16 03:46:03;;;;;;;6.57;3.17;;;-0.80;67.00;;;1.27;50.87;97072.38;5073300;28;20601;-55
2024/01/16 03:48:30;;;;;;;6.30;3.03;;;-0.80;66.60;;;1.23;51.58;97063.09;5073468;28;20044;-54
2024/01/16 03:50:58;;;;;;;5.90;3.20;;;-0.80;67.00;;;1.23;51.01;97062.25;5073068;28;20048;-53
2024/01/16 03:53:26;;;;;;;6.83;3.50;;;-0.90;66.70;;;1.20;51.12;97052.81;5073435;28;20051;-53
2024/01/16 03:55:53;;;;;;;5.20;3.17;;;-0.90;66.80;;;1.18;51.51;97054.72;5072076;28;20041;-51
2024/01/16 03:58:22;;;;;;;5.87;2.87;;;-1.00;66.70;;;1.16;51.14;97048.75;5064240;28;20036;-53
2024/01/16 04:00:51;;;;;;;6.47;3.07;;;-1.00;66.70;;;1.10;50.91;97047.44;5073705;28;20044;-54
2024/01/16 04:03:18;;;;;;;7.47;3.03;;;-1.00;66.80;;;1.08;51.24;97051.16;5072217;28;20044;-53
2024/01/16 04:05:46;;;;;;;10.03;3.50;;;-1.00;67.10;;;1.04;51.16;97050.53;5073391;28;20049;-55
2024/01/16 04:08:14;;;;;;;8.43;3.60;;;-1.00;67.00;;;1.02;51.60;97054.25;5073266;28;20040;-51
2024/01/16 04:10:41;;;;;;;7.40;3.10;;;-1.00;66.70;;;0.98;51.45;97049.22;5073353;28;20052;-56
2024/01/16 04:13:09;;;;;;;6.93;3.23;;;-1.00;66.60;;;0.97;51.52;97049.34;5072636;28;20467;-55
2024/01/16 04:15:40;;;;;;;10.77;3.17;;;-1.10;66.70;;;0.95;50.96;97053.84;5071075;28;20055;-53
2024/01/16 04:18:07;;;;;;;5.97;3.00;;;-1.00;66.70;;;0.95;51.39;97056.47;5072943;28;20044;-54
2024/01/16 04:20:35;;;;;;;5.50;3.30;;;-1.00;66.60;;;0.92;51.04;97057.53;5072979;28;20408;-55
2024/01/16 04:23:03;;;;;;;5.47;3.53;;;-1.00;66.50;;;0.91;51.64;97060.28;5072225;28;20040;-55
2024/01/16 04:25:31;;;;;;;4.50;2.90;;;-1.10;67.00;;;0.86;51.03;97059.81;5072250;28;20041;-54
2024/01/16 04:27:58;;;;;;;7.00;3.37;;;-1.20;67.20;;;0.83;50.79;97060.84;5070356;28;20048;-51
2024/01/16 04:30:29;;;;;;;5.20;3.17;;;-1.30;67.10;;;0.78;51.38;97055.13;5069054;28;20040;-51
2024/01/16 04:32:57;;;;;;;6.43;3.33;;;-1.40;67.60;;;0.74;51.22;97058.94;5072434;28;20041;-55
2024/01/16 04:35:25;;;;;;;6.93;2.70;;;-1.40;68.10;;;0.68;51.57;97056.75;5063253;28;20040;-54
2024/01/16 04:37:52;;;;;;;4.37;2.73;;;-1.40;68.20;;;0.67;51.34;97058.53;5072747;28;20412;-54
2024/01/16 04:40:21;;;;;;;5.73;3.10;;;-1.40;67.70;;;0.67;51.02;97057.72;5071222;28;20047;-51
2024/01/16 04:42:49;;;;;;;9.03;3.43;;;-1.30;67.30;;;0.66;51.94;97051.66;5071958;28;20051;-54
2024/01/16 04:45:17;;;;;;;5.60;2.93;;;-1.30;67.40;;;0.65;52.09;97044.72;5070252;28;20396;-51
2024/01/16 04:47:44;;;;;;;6.93;3.40;;;-1.30;67.30;;;0.64;51.51;97043.06;5088059;28;20040;-55
2024/01/16 04:50:12;;;;;;;6.00;3.23;;;-1.30;67.10;;;0.62;51.99;97034.50;5072368;28;20506;-55
2024/01/16 04:52:40;;;;;;;7.33;2.87;;;-1.30;67.20;;;0.62;51.60;97031.88;5071965;28;20488;-52
2024/01/16 04:55:07;;;;;;;5.53;3.03;;;-1.30;67.30;;;0.64;51.49;97035.22;5071964;28;20036;-53
2024/01/16 04:57:35;;;;;;;7.03;3.27;;;-1.30;67.10;;;0.61;51.91;97030.19;5071932;28;20040;-52
2024/01/16 05:00:07;;;;;;;8.20;3.30;;;-1.40;67.20;;;0.59;51.53;97035.53;5071696;28;20051;-55
2024/01/16 05:02:35;;;;;;;7.20;3.03;;;-1.40;67.40;;;0.55;51.19;97036.72;5071786;28;20036;-52
2024/01/16 05:05:05;;;;;;;6.27;2.93;;;-1.40;67.30;;;0.55;51.39;97038.50;5071757;28;20055;-53
2024/01/16 05:07:33;;;;;;;5.03;2.87;;;-1.50;67.50;;;0.53;51.70;97037.78;5072007;28;20040;-55
2024/01/16 05:10:02;;;;;;;6.43;3.27;;;-1.50;67.20;;;0.49;51.39;97034.56;5071848;28;20036;-53
2024/01/16 05:12:29;;;;;;;9.17;3.77;;;-1.60;68.20;;;0.50;51.07;97041.44;5071363;28;20037;-52
2024/01/16 05:14:57;;;;;;;5.50;3.43;;;-1.60;68.00;;;0.50;51.35;97038.00;5071727;28;20040;-50
2024/01/16 05:17:25;;;;;;;4.27;3.23;;;-1.60;68.70;;;0.49;51.47;97036.34;5071648;28;20432;-54
2024/01/16 05:19:53;;;;;;;7.07;3.70;;;-1.60;68.00;;;0.46;51.22;97026.09;5071669;28;20048;-52
2024/01/16 05:22:20;;;;;;;10.67;4.03;;;-1.70;68.00;;;0.42;51.66;97020.22;5070009;28;20500;-55
2024/01/16 05:24:48;;;;;;;6.70;3.93;;;-1.70;68.60;;;0.41;52.11;97021.19;5070087;28;20049;-53
2024/01/16 05:27:16;;;;;;;13.57;5.40;;;-1.80;68.30;;;0.37;51.56;97019.75;5071659;28;20064;-51
2024/01/16 05:29:43;;;;;;;8.70;4.97;;;-1.80;68.40;;;0.31;52.06;97017.56;5071897;28;20484;-53
2024/01/16 05:32:13;;;;;;;49.90;13.97;;;-1.90;68.70;;;0.28;51.96;97016.00;5070963;28;20051;-54
2024/01/16 05:34:41;;;;;;;42.13;14.70;;;-2.00;69.20;;;0.24;52.34;97017.19;5069732;28;20403;-55
2024/01/16 05:37:08;;;;;;;25.53;9.53;;;-2.00;69.20;;;0.24;52.01;97014.56;5069565;28;20040;-54
2024/01/16 05:39:37;;;;;;;18.57;7.20;;;-2.00;69.50;;;0.27;52.13;97011.75;5070123;28;20043;-54
2024/01/16 05:42:05;;;;;;;15.37;6.87;;;-1.90;69.10;;;0.29;51.98;97011.59;5070968;28;20040;-53
2024/01/16 05:44:33;;;;;;;13.47;7.37;;;-1.80;68.80;;;0.32;51.56;97009.59;5071247;28;20496;-53
2024/01/16 05:47:02;;;;;;;12.07;6.93;;;-1.80;68.40;;;0.31;51.93;97001.84;5071179;28;20044;-53
2024/01/16 05:49:29;;;;;;;14.03;7.43;;;-1.70;68.10;;;0.35;51.52;96998.91;5071026;28;20051;-51
2024/01/16 05:51:57;;;;;;;8.57;6.07;;;-1.70;68.10;;;0.37;51.96;96997.00;5070968;28;20045;-52
2024/01/16 05:54:25;;;;;;;7.43;4.60;;;-1.60;67.90;;;0.38;51.37;96993.44;5070779;28;20044;-54
2024/01/16 05:56:52;;;;;;;8.17;4.03;;;-1.70;67.60;;;0.38;51.77;96996.06;5071227;28;20036;-52
2024/01/16 05:59:20;;;;;;;9.00;4.50;;;-1.70;67.80;;;0.39;52.12;96997.72;5069154;28;20048;-52
2024/01/16 06:01:49;;;;;;;6.43;3.87;;;-1.70;67.60;;;0.39;51.77;96986.44;5070865;28;20044;-53
2024/01/16 06:04:16;;;;;;;4.30;3.30;;;-1.60;67.40;;;0.39;51.87;96987.25;5070669;28;20048;-52
2024/01/16 06:06:47;;;;;;;5.70;3.13;;;-1.70;67.60;;;0.42;52.05;96988.81;5070019;28;20041;-51
2024/01/16 06:09:15;;;;;;;5.43;3.43;;;-1.70;67.40;;;0.41;52.18;96989.78;5071047;28;20412;-53
2024/01/16 06:11:43;;;;;;;7.90;4.37;;;-1.70;67.60;;;0.42;51.91;96986.19;5070604;28;20036;-54
2024/01/16 06:14:12;;;;;;;6.50;5.00;;;-1.70;67.50;;;0.42;51.63;96988.81;5070889;28;20412;-52
2024/01/16 06:16:40;;;;;;;6.27;4.00;;;-1.70;67.70;;;0.40;51.40;96982.84;5070710;28;20033;-53
2024/01/16 06:19:08;;;;;;;7.97;4.27;;;-1.70;67.90;;;0.39;52.04;96992.50;5070880;28;20087;-51
2024/01/16 06:21:36;;;;;;;5.67;3.63;;;-1.70;68.00;;;0.38;52.23;96998.66;5062605;28;20492;-58
2024/01/16 06:24:06;;;;;;;6.80;2.93;;;-1.70;67.70;;;0.38;52.08;96992.59;5072243;28;20044;-61
2024/01/16 06:26:34;;;;;;;4.50;2.60;;;-1.70;67.70;;;0.38;52.10;96996.06;5068975;28;20428;-61
2024/01/16 06:29:02;;;;;;;6.13;3.10;;;-1.70;67.30;;;0.39;51.57;96996.91;5069620;28;20067;-61
2024/01/16 06:31:29;;;;;;;5.97;3.50;;;-1.70;67.10;;;0.40;51.78;96988.09;5070345;28;20049;-61
2024/01/16 06:33:57;;;;;;;5.00;2.93;;;-1.60;67.20;;;0.43;51.87;96989.63;5068366;28;20519;-63
2024/01/16 06:36:25;;;;;;;4.87;2.23;;;-1.60;66.60;;;0.43;51.55;96992.25;5070610;28;20511;-62
2024/01/16 06:38:52;;;;;;;5.20;3.17;;;-1.50;66.30;;;0.43;52.22;96990.50;5069570;28;20043;-58
2024/01/16 06:41:20;;;;;;;3.83;2.67;;;-1.50;66.30;;;0.44;51.80;96999.19;5070194;28;20063;-61
2024/01/16 06:43:48;;;;;;;7.63;3.47;;;-1.50;66.30;;;0.45;51.71;96998.25;5068897;28;20049;-61
2024/01/16 06:46:16;;;;;;;5.80;3.00;;;-1.50;66.50;;;0.47;52.30;96999.78;5070542;28;20064;-62
2024/01/16 06:48:43;;;;;;;5.43;3.20;;;-1.50;66.20;;;0.44;51.80;96994.75;5070800;28;20515;-60
2024/01/16 06:51:13;;;;;;;5.10;2.80;;;-1.70;66.40;;;0.42;52.10;97006.31;5073799;28;20044;-59
2024/01/16 06:53:41;;;;;;;5.63;3.00;;;-1.70;67.30;;;0.43;51.92;97005.34;5066928;28;20041;-60
2024/01/16 06:56:09;;;;;;;4.17;2.90;;;-1.70;67.10;;;0.39;51.31;97007.38;5074515;28;20036;-59
2024/01/16 06:58:37;;;;;;;5.73;3.00;;;-1.80;66.70;;;0.34;51.38;97005.09;5074425;28;20408;-59
2024/01/16 07:01:04;;;;;;;5.03;3.23;;;-1.90;67.20;;;0.31;51.92;97005.34;5072357;28;20060;-59
2024/01/16 07:03:32;;;;;;;6.23;3.30;;;-1.90;67.20;;;0.33;51.62;97011.28;5073995;28;20479;-59
2024/01/16 07:06:00;;;;;;;6.13;3.10;;;-1.80;66.80;;;0.34;51.39;97015.56;5072579;28;20128;-59
2024/01/16 07:08:28;;;;;;;5.03;2.77;;;-1.70;65.80;;;0.35;51.57;97013.78;5071138;28;20056;-59
2024/01/16 07:10:56;;;;;;;6.13;4.17;;;-1.70;65.30;;;0.31;51.66;97005.34;5073589;28;20037;-59
2024/01/16 07:13:24;;;;;;;6.80;3.23;;;-1.70;65.50;;;0.33;51.67;97003.44;5073408;28;20041;-60
2024/01/16 07:15:51;;;;;;;5.73;3.23;;;-1.60;65.30;;;0.35;50.91;96998.06;5074090;28;20040;-58
2024/01/16 07:18:19;;;;;;;16.67;7.03;;;-1.70;65.10;;;0.36;51.29;97005.81;5073787;28;20051;-59
2024/01/16 07:20:47;;;;;;;5.00;2.97;;;-1.70;64.80;;;0.35;51.61;97000.69;5072667;28;20044;-58
2024/01/16 07:23:15;;;;;;;7.93;4.90;;;-1.70;64.40;;;0.35;50.80;97000.69;5073407;28;20067;-59
2024/01/16 07:25:43;;;;;;;6.87;3.50;;;-1.70;64.50;;;0.36;51.17;97005.81;5073492;28;20047;-60
2024/01/16 07:28:10;;;;;;;5.23;3.33;;;-1.70;64.60;;;0.36;50.76;96997.94;5073504;28;20047;-60
2024/01/16 07:30:38;;;;;;;7.60;3.17;;;-1.70;64.40;;;0.37;51.12;97006.66;5070013;28;20393;-60
2024/01/16 07:33:06;;;;;;;6.53;3.47;;;-1.60;64.40;;;0.35;51.15;96995.44;5073292;28;20041;-60
2024/01/16 07:35:34;;;;;;;4.97;3.30;;;-1.70;64.70;;;0.32;51.24;96988.66;5073616;28;20113;-60
2024/01/16 07:38:02;;;;;;;8.13;3.23;;;-1.80;64.80;;;0.32;51.02;96990.44;5089427;28;20527;-57
2024/01/16 07:40:32;;;;;;;7.23;2.80;;;-1.80;65.40;;;0.34;51.34;96991.16;5073821;28;20407;-59
2024/01/16 07:42:59;;;;;;;7.00;2.87;;;-1.70;65.40;;;0.32;50.40;96986.03;5073115;28;20040;-60
2024/01/16 07:45:27;;;;;;;6.10;2.80;;;-1.80;64.70;;;0.31;51.03;96980.91;5073228;28;20139;-59
2024/01/16 07:47:54;;;;;;;7.23;3.23;;;-1.80;65.20;;;0.32;51.12;96985.22;5073477;28;20040;-57
2024/01/16 07:50:22;;;;;;;9.43;4.20;;;-1.70;64.60;;;0.31;51.28;96992.22;5073246;28;20059;-58
2024/01/16 07:52:50;;;;;;;5.47;3.27;;;-1.80;65.10;;;0.31;50.57;96989.63;5073026;28;20284;-58
2024/01/16 07:55:18;;;;;;;5.63;2.70;;;-1.80;64.90;;;0.33;51.27;97000.81;5073107;28;20041;-58
2024/01/16 07:57:50;;;;;;;3.87;2.57;;;-1.80;64.60;;;0.36;51.04;96997.94;5073303;28;20036;-58
2024/01/16 08:00:18;;;;;;;7.93;3.87;;;-1.70;64.90;;;0.36;51.41;97002.34;5072739;28;20048;-58
2024/01/16 08:02:46;;;;;;;5.77;2.50;;;-1.70;64.80;;;0.39;51.29;96996.91;5063619;28;20480;-58
2024/01/16 08:05:13;;;;;;;8.37;3.33;;;-1.70;64.70;;;0.43;50.84;96997.50;5073098;28;20032;-58
2024/01/16 08:07:44;;;;;;;11.33;3.67;;;-1.60;64.30;;;0.47;50.72;96997.16;5073100;28;20051;-57
2024/01/16 08:10:12;;;;;;;4.77;2.80;;;-1.50;64.20;;;0.51;51.24;96998.59;5072863;28;20046;-58
2024/01/16 08:12:43;;;;;;;9.73;3.83;;;-1.40;63.90;;;0.56;51.23;97006.09;5071372;28;20424;-58
2024/01/16 08:15:11;;;;;;;5.70;3.10;;;-1.40;63.20;;;0.58;50.74;97002.44;5072871;28;20092;-58
2024/01/16 08:17:39;;;;;;;6.00;2.97;;;-1.30;63.50;;;0.60;50.20;97004.91;5072631;28;20059;-58
2024/01/16 08:20:09;;;;;;;5.47;2.87;;;-1.30;63.00;;;0.63;50.35;97003.88;5073011;28;20040;-58
2024/01/16 08:22:38;;;;;;;7.40;3.20;;;-1.30;63.20;;;0.66;50.58;97011.50;5072686;28;20048;-58
2024/01/16 08:25:06;;;;;;;5.10;2.70;;;-1.20;63.20;;;0.65;50.56;97002.81;5072743;28;20059;-58
2024/01/16 08:27:34;;;;;;;5.57;2.93;;;-1.20;62.20;;;0.67;50.45;97008.75;5072613;28;20515;-58
2024/01/16 08:30:01;;;;;;;7.43;3.00;;;-1.30;62.90;;;0.69;50.67;97012.09;5072995;28;20048;-57
2024/01/16 08:32:29;;;;;;;6.23;3.77;;;-1.30;63.00;;;0.72;50.73;97016.28;5072214;28;20044;-57
2024/01/16 08:34:57;;;;;;;7.73;3.27;;;-1.20;62.80;;;0.73;50.56;97028.44;5070757;28;20040;-57
2024/01/16 08:37:25;;;;;;;9.20;3.87;;;-1.20;62.40;;;0.72;50.56;97021.53;5071132;28;20152;-58
2024/01/16 08:39:53;;;;;;;6.30;3.50;;;-1.20;62.00;;;0.76;50.27;97031.66;5071050;28;20401;-58
2024/01/16 08:42:20;;;;;;;3.97;2.90;;;-1.10;62.40;;;0.81;50.08;97030.47;5071307;28;20048;-58
2024/01/16 08:44:48;;;;;;;6.47;3.40;;;-1.10;61.90;;;0.80;50.17;97026.19;5064308;28;20044;-58
2024/01/16 08:47:16;;;;;;;7.33;3.60;;;-1.10;62.60;;;0.84;50.30;97033.72;5072309;28;20067;-58
2024/01/16 08:49:43;;;;;;;6.87;3.80;;;-1.10;62.30;;;0.85;50.09;97037.16;5072278;28;20063;-58
2024/01/16 08:52:11;;;;;;;7.73;3.30;;;-1.10;62.40;;;0.87;50.45;97038.69;5071795;28;20492;-59
2024/01/16 08:54:39;;;;;;;6.37;3.23;;;-1.10;62.40;;;0.84;50.49;97036.31;5070675;28;20048;-59
2024/01/16 08:57:06;;;;;;;5.93;3.40;;;-1.10;62.20;;;0.86;50.08;97034.41;5072279;28;20032;-59
2024/01/16 08:59:34;;;;;;;5.17;2.60;;;-1.10;62.20;;;0.89;49.52;97038.59;5072106;28;20226;-58
2024/01/16 09:02:03;;;;;;;5.67;3.77;;;-1.00;62.00;;;0.92;50.47;97041.81;5069922;28;20048;-58
2024/01/16 09:04:31;;;;;;;8.50;4.30;;;-1.00;61.70;;;0.94;49.70;97034.66;5071921;28;20426;-58
2024/01/16 09:06:58;;;;;;;6.03;3.47;;;-0.90;61.50;;;1.00;50.14;97038.63;5071793;28;20052;-59
2024/01/16 09:09:26;;;;;;;8.23;5.17;;;-0.90;61.50;;;1.03;49.93;97029.66;5071756;28;20393;-59
2024/01/16 09:11:54;;;;;;;11.43;4.93;;;-0.80;61.00;;;1.05;49.35;97033.00;5068996;28;20361;-58
2024/01/16 09:14:21;;;;;;;7.57;3.70;;;-0.80;60.90;;;1.07;49.58;97031.13;5067753;28;20044;-58
2024/01/16 09:16:49;;;;;;;7.83;4.80;;;-0.80;61.50;;;1.10;49.60;97034.34;5070612;28;20037;-60
2024/01/16 09:19:16;;;;;;;7.57;4.30;;;-0.80;61.20;;;1.13;49.25;97035.91;5071848;28;20045;-59
2024/01/16 09:21:44;;;;;;;8.93;4.90;;;-0.80;60.70;;;1.15;49.45;97041.88;5071318;28;20490;-59
2024/01/16 09:24:12;;;;;;;9.20;4.97;;;-0.80;61.20;;;1.20;49.91;97046.75;5070309;28;20487;-58
2024/01/16 09:26:40;;;;;;;8.80;5.43;;;-0.70;61.10;;;1.18;48.92;97045.09;5070292;28;20048;-58
2024/01/16 09:29:09;;;;;;;5.23;3.40;;;-0.70;60.80;;;1.21;49.43;97051.06;5069727;28;20056;-59
2024/01/16 09:31:37;;;;;;;7.30;3.57;;;-0.70;61.00;;;1.24;50.17;97046.41;5069983;28;20044;-58
2024/01/16 09:34:05;;;;;;;5.03;3.30;;;-0.60;61.00;;;1.26;49.37;97047.13;5071394;28;20040;-58
2024/01/16 09:36:36;;;;;;;4.50;3.20;;;-0.60;60.70;;;1.29;49.90;97043.44;5069658;28;20045;-58
2024/01/16 09:39:13;;;;;;;7.03;3.57;;;-0.50;60.60;;;1.33;49.25;97043.06;5071087;28;20063;-59
2024/01/16 09:41:45;;;;;;;6.20;3.83;;;-0.40;60.30;;;1.38;49.58;97040.94;5071053;28;20052;-58
2024/01/16 09:44:12;;;;;;;7.27;4.00;;;-0.40;60.20;;;1.40;49.66;97046.06;5069995;28;20044;-58
2024/01/16 09:46:46;;;;;;;5.77;2.77;;;-0.40;59.80;;;1.45;49.28;97043.91;5071249;28;20484;-59
2024/01/16 09:49:15;;;;;;;5.43;3.13;;;-0.30;60.10;;;1.50;49.00;97040.94;5070172;28;20048;-58
2024/01/16 09:51:45;;;;;;;7.93;3.27;;;-0.30;59.50;;;1.51;49.57;97039.97;5070517;28;20037;-58
2024/01/16 09:54:13;;;;;;;6.70;2.93;;;-0.30;59.50;;;1.54;48.74;97044.97;5070847;28;20047;-59
2024/01/16 09:56:45;;;;;;;7.17;3.33;;;-0.30;59.20;;;1.58;49.22;97043.78;5070686;28;20037;-58
2024/01/16 09:59:18;;;;;;;8.47;3.60;;;-0.20;59.60;;;1.59;49.04;97034.97;5070215;28;20048;-58
2024/01/16 10:01:48;;;;;;;8.60;3.33;;;-0.20;59.20;;;1.62;49.14;97033.91;5070726;28;20052;-58
2024/01/16 10:04:16;;;;;;;7.23;3.10;;;-0.10;59.50;;;1.69;49.26;97042.97;5069858;28;20047;-58
2024/01/16 10:06:48;;;;;;;6.93;3.40;;;-0.10;59.40;;;1.73;48.79;97031.25;5070783;28;20052;-59
2024/01/16 10:09:16;;;;;;;7.67;4.90;;;-0.10;59.20;;;1.74;48.92;97035.53;5069463;28;20068;-58
2024/01/16 10:11:45;;;;;;;7.73;3.30;;;0.00;59.20;;;1.80;48.72;97027.19;5070581;28;20048;-58
2024/01/16 10:14:13;;;;;;;4.73;2.77;;;0.00;59.60;;;1.85;49.03;97030.28;5070739;28;20036;-58
2024/01/16 10:17:15;;;;;;;4.60;2.73;;;0.10;59.50;;;1.90;48.96;97017.63;5069720;28;20041;-58
2024/01/16 10:20:04;;;;;;;4.80;2.63;;;0.10;58.70;;;1.95;48.74;97014.63;5070736;28;20447;-59
2024/01/16 10:22:32;;;;;;;7.70;2.53;;;0.10;58.90;;;1.95;48.94;97010.19;5070573;28;20044;-58
2024/01/16 10:25:07;;;;;;;4.20;2.70;;;0.20;59.30;;;2.00;48.77;97007.22;5077390;28;20040;-59
2024/01/16 10:27:36;;;;;;;4.97;2.40;;;0.20;58.50;;;2.05;48.93;96999.78;5070797;28;20037;-58
2024/01/16 10:30:04;;;;;;;4.37;3.20;;;0.20;59.00;;;2.11;48.78;97001.09;5070551;28;20511;-58
2024/01/16 10:32:42;;;;;;;4.30;2.47;;;0.30;59.30;;;2.18;48.48;96989.16;5065046;28;20500;-59